createdAt,value
2023-02-02T00:01:25.368Z,87.98
2023-02-02T00:03:53.576Z,87.44
2023-02-02T00:06:25.439Z,85.67
2023-02-02T00:08:53.695Z,87.86
2023-02-02T00:11:21.491Z,88.08
2023-02-02T00:13:49.199Z,88.76
2023-02-02T00:16:36.527Z,88.14
2023-02-02T00:19:06.646Z,90.18
2023-02-02T00:21:35.811Z,89.81
2023-02-02T00:24:03.602Z,89.55
2023-02-02T00:26:31.326Z,89.43
2023-02-02T00:28:59.181Z,90.37
2023-02-02T00:31:27.020Z,90.21
2023-02-02T00:33:54.752Z,89.37
2023-02-02T00:36:22.529Z,88.48
2023-02-02T00:38:52.946Z,88.20
2023-02-02T00:41:20.980Z,89.41
2023-02-02T00:44:09.214Z,87.77
2023-02-02T00:46:39.408Z,88.51
2023-02-02T00:49:07.121Z,90.17
2023-02-02T00:51:34.942Z,89.97
2023-02-02T00:54:04.464Z,91.15
2023-02-02T00:56:32.310Z,90.71
2023-02-02T00:59:00.179Z,92.11
2023-02-02T01:01:28.646Z,93.24
2023-02-02T01:03:56.351Z,93.93
2023-02-02T01:06:24.129Z,92.70
2023-02-02T01:08:51.868Z,94.30
2023-02-02T01:11:20.984Z,93.60
2023-02-02T01:13:48.741Z,95.07
2023-02-02T01:16:16.502Z,94.10
2023-02-02T01:18:44.595Z,94.40
2023-02-02T01:21:13.388Z,94.36
2023-02-02T01:23:41.582Z,93.23
2023-02-02T01:26:11.257Z,93.19
2023-02-02T01:28:41.157Z,92.37
2023-02-02T01:31:11.832Z,91.65
2023-02-02T01:33:40.093Z,92.30
2023-02-02T01:36:11.538Z,90.35
2023-02-02T01:38:39.245Z,92.42
2023-02-02T01:41:08.048Z,93.81
2023-02-02T01:43:55.129Z,93.79
2023-02-02T01:46:25.061Z,93.00
2023-02-02T01:48:58.017Z,92.88
2023-02-02T01:51:32.192Z,92.22
2023-02-02T01:54:01.082Z,91.82
2023-02-02T01:56:35.240Z,92.89
2023-02-02T01:59:05.725Z,92.09
2023-02-02T02:01:33.444Z,91.13
2023-02-02T02:04:01.236Z,91.78
2023-02-02T02:06:29.935Z,92.13
2023-02-02T02:09:00.229Z,91.71
2023-02-02T02:11:28.257Z,91.13
2023-02-02T02:14:15.910Z,92.79
2023-02-02T02:16:55.702Z,91.67
2023-02-02T02:20:15.798Z,90.98
2023-02-02T02:23:17.802Z,91.22
2023-02-02T02:26:38.920Z,90.97
2023-02-02T02:29:54.793Z,91.38
2023-02-02T02:32:33.776Z,92.13
2023-02-02T02:35:10.710Z,91.83
2023-02-02T02:37:47.079Z,93.68
2023-02-02T02:40:23.127Z,93.29
2023-02-02T02:42:55.732Z,92.37
2023-02-02T02:45:26.256Z,93.34
2023-02-02T02:47:56.239Z,92.41
2023-02-02T02:50:24.053Z,92.60
2023-02-02T02:53:05.580Z,91.58
2023-02-02T02:55:47.188Z,92.41
2023-02-02T02:58:19.530Z,91.64
2023-02-02T03:01:06.884Z,94.33
2023-02-02T03:03:51.860Z,96.03
2023-02-02T03:06:29.192Z,94.60
2023-02-02T03:09:01.918Z,95.69
2023-02-02T03:11:29.913Z,95.45
2023-02-02T03:13:58.074Z,94.17
2023-02-02T03:16:25.794Z,93.80
2023-02-02T03:18:56.070Z,95.03
2023-02-02T03:21:23.735Z,95.91
2023-02-02T03:23:51.438Z,95.18
2023-02-02T03:26:19.229Z,93.91
2023-02-02T03:28:47.107Z,94.21
2023-02-02T03:31:15.061Z,95.79
2023-02-02T03:33:43.078Z,96.78
2023-02-02T03:36:12.370Z,96.81
2023-02-02T03:38:40.110Z,95.89
2023-02-02T03:41:07.851Z,95.27
2023-02-02T03:43:35.524Z,94.10
2023-02-02T03:46:05.265Z,94.68
2023-02-02T03:48:35.862Z,93.86
2023-02-02T03:51:07.088Z,93.89
2023-02-02T03:53:36.145Z,95.59
2023-02-02T03:56:04.501Z,94.39
2023-02-02T03:58:32.169Z,95.21
2023-02-02T04:01:04.515Z,95.74
2023-02-02T04:03:32.244Z,94.91
2023-02-02T04:05:59.933Z,93.81
2023-02-02T04:08:28.443Z,93.33
2023-02-02T04:10:57.543Z,93.40
2023-02-02T04:13:25.292Z,91.95
2023-02-02T04:15:58.321Z,92.51
2023-02-02T04:18:26.113Z,91.43
2023-02-02T04:20:58.322Z,90.87
2023-02-02T04:23:26.358Z,91.13
2023-02-02T04:25:54.234Z,91.28
2023-02-02T04:28:23.854Z,92.08
2023-02-02T04:30:51.847Z,92.84
2023-02-02T04:33:19.550Z,90.78
2023-02-02T04:35:47.431Z,92.11
2023-02-02T04:38:15.823Z,92.15
2023-02-02T04:40:45.748Z,91.83
2023-02-02T04:43:13.869Z,91.60
2023-02-02T04:45:43.331Z,91.67
2023-02-02T04:48:11.145Z,91.28
2023-02-02T04:50:38.935Z,91.66
2023-02-02T04:53:06.778Z,92.07
2023-02-02T04:55:37.919Z,92.93
2023-02-02T04:58:06.099Z,90.83
2023-02-02T05:00:34.014Z,90.63
2023-02-02T05:03:03.046Z,90.53
2023-02-02T05:05:30.786Z,92.33
2023-02-02T05:07:59.876Z,93.74
2023-02-02T05:10:27.660Z,91.93
2023-02-02T05:12:55.690Z,94.08
2023-02-02T05:15:23.977Z,94.18
2023-02-02T05:17:52.097Z,93.08
2023-02-02T05:20:21.276Z,93.74
2023-02-02T05:22:50.658Z,93.41
2023-02-02T05:25:19.127Z,92.69
2023-02-02T05:27:47.309Z,91.65
2023-02-02T05:30:15.925Z,92.32
2023-02-02T05:32:43.647Z,91.47
2023-02-02T05:35:11.976Z,91.83
2023-02-02T05:37:43.144Z,91.10
2023-02-02T05:40:12.150Z,89.72
2023-02-02T05:42:40.015Z,91.77
2023-02-02T05:45:08.473Z,91.79
2023-02-02T05:47:36.658Z,91.65
2023-02-02T05:50:04.543Z,90.53
2023-02-02T05:52:35.931Z,92.22
2023-02-02T05:55:05.571Z,92.73
2023-02-02T05:57:34.238Z,93.48
2023-02-02T06:00:01.941Z,92.84
2023-02-02T06:02:29.691Z,91.85
2023-02-02T06:04:57.411Z,92.34
2023-02-02T06:07:25.431Z,93.16
2023-02-02T06:09:53.126Z,92.37
2023-02-02T06:12:22.249Z,92.13
2023-02-02T06:14:49.970Z,90.60
2023-02-02T06:17:17.742Z,90.45
2023-02-02T06:19:45.471Z,90.02
2023-02-02T06:22:13.257Z,91.30
2023-02-02T06:24:41.120Z,90.02
2023-02-02T06:27:08.816Z,90.11
2023-02-02T06:29:54.826Z,92.09
2023-02-02T06:32:22.523Z,92.90
2023-02-02T06:34:50.213Z,93.17
2023-02-02T06:37:17.931Z,90.62
2023-02-02T06:39:45.984Z,90.51
2023-02-02T06:42:21.105Z,90.52
2023-02-02T06:44:51.078Z,91.97
2023-02-02T06:47:18.849Z,91.75
2023-02-02T06:49:46.507Z,91.51
2023-02-02T06:52:14.166Z,92.25
2023-02-02T06:54:41.887Z,91.50
2023-02-02T06:57:10.397Z,90.85
2023-02-02T06:59:38.283Z,90.64
2023-02-02T07:02:10.177Z,91.65
2023-02-02T07:04:37.935Z,92.46
2023-02-02T07:07:05.707Z,92.00
2023-02-02T07:09:33.796Z,92.47
2023-02-02T07:12:01.524Z,91.89
2023-02-02T07:14:29.254Z,91.90
2023-02-02T07:16:56.933Z,91.32
2023-02-02T07:19:26.056Z,89.57
2023-02-02T07:21:53.740Z,90.20
2023-02-02T07:24:21.427Z,90.73
2023-02-02T07:26:49.145Z,90.12
2023-02-02T07:29:16.821Z,89.22
2023-02-02T07:31:44.576Z,89.50
2023-02-02T07:34:12.375Z,89.79
2023-02-02T07:36:41.469Z,88.63
2023-02-02T07:39:09.570Z,88.54
2023-02-02T07:41:37.766Z,89.01
2023-02-02T07:44:07.282Z,89.41
2023-02-02T07:46:35.138Z,88.18
2023-02-02T07:49:03.827Z,87.93
2023-02-02T07:51:31.535Z,87.26
2023-02-02T07:54:00.632Z,87.51
2023-02-02T07:56:28.929Z,86.46
2023-02-02T07:58:57.713Z,87.73
2023-02-02T08:01:26.602Z,84.79
2023-02-02T08:03:55.714Z,84.04
2023-02-02T08:06:26.183Z,84.16
2023-02-02T08:08:53.913Z,83.39
2023-02-02T08:11:24.184Z,79.98
2023-02-02T08:13:53.436Z,77.05
2023-02-02T08:16:22.105Z,75.93
2023-02-02T08:18:50.213Z,72.39
2023-02-02T08:21:18.973Z,72.12
2023-02-02T08:23:46.999Z,72.76
2023-02-02T08:26:17.143Z,70.57
2023-02-02T08:28:48.021Z,71.69
2023-02-02T08:31:19.100Z,71.55
2023-02-02T08:33:47.242Z,66.30
2023-02-02T08:36:16.249Z,65.35
2023-02-02T08:38:44.050Z,63.76
2023-02-02T08:41:14.037Z,63.19
2023-02-02T08:43:42.569Z,60.27
2023-02-02T08:46:14.934Z,59.71
2023-02-02T08:48:43.275Z,58.96
2023-02-02T08:51:12.986Z,56.92
2023-02-02T08:53:40.740Z,55.53
2023-02-02T08:56:11.881Z,55.89
2023-02-02T08:58:40.234Z,57.35
2023-02-02T09:01:09.690Z,59.63
2023-02-02T09:03:40.240Z,62.75
2023-02-02T09:06:09.283Z,67.15
2023-02-02T09:08:37.438Z,68.97
2023-02-02T09:11:07.537Z,69.20
2023-02-02T09:13:35.383Z,73.27
2023-02-02T09:16:04.635Z,73.42
2023-02-02T09:18:32.587Z,74.02
2023-02-02T09:21:03.128Z,75.14
2023-02-02T09:23:31.612Z,76.98
2023-02-02T09:26:09.361Z,80.20
2023-02-02T09:28:39.141Z,80.81
2023-02-02T09:31:07.966Z,82.17
2023-02-02T09:33:36.299Z,81.12
2023-02-02T09:36:10.975Z,82.06
2023-02-02T09:38:39.345Z,82.28
2023-02-02T09:41:44.542Z,81.36
2023-02-02T09:44:22.491Z,80.73
2023-02-02T09:47:02.820Z,82.49
2023-02-02T09:49:38.861Z,82.87
2023-02-02T09:52:14.348Z,82.21
2023-02-02T09:54:44.779Z,83.77
2023-02-02T09:57:18.154Z,83.27
2023-02-02T09:59:48.773Z,82.64
2023-02-02T10:02:19.794Z,81.66
2023-02-02T10:04:51.296Z,81.51
2023-02-02T10:07:23.987Z,81.89
2023-02-02T10:09:58.972Z,83.68
2023-02-02T10:12:36.064Z,82.41
2023-02-02T10:15:13.454Z,82.82
2023-02-02T10:17:46.308Z,81.71
2023-02-02T10:20:22.360Z,82.29
2023-02-02T10:22:52.457Z,81.63
2023-02-02T10:25:23.746Z,81.23
2023-02-02T10:28:04.189Z,80.85
2023-02-02T10:30:41.199Z,81.57
2023-02-02T10:33:21.490Z,81.76
2023-02-02T10:35:58.124Z,80.30
2023-02-02T10:38:37.703Z,79.56
2023-02-02T10:41:14.700Z,80.90
2023-02-02T10:44:04.931Z,81.74
2023-02-02T10:46:37.723Z,81.34
2023-02-02T10:49:19.144Z,81.31
2023-02-02T10:51:55.170Z,81.45
2023-02-02T10:54:54.835Z,81.19
2023-02-02T10:57:33.696Z,82.10
2023-02-02T11:00:09.566Z,81.49
2023-02-02T11:02:37.429Z,79.44
2023-02-02T11:05:22.882Z,78.20
2023-02-02T11:07:51.577Z,77.80
2023-02-02T11:10:20.656Z,79.78
2023-02-02T11:12:53.105Z,79.75
2023-02-02T11:15:26.909Z,80.09
2023-02-02T11:17:54.939Z,79.80
2023-02-02T11:20:31.906Z,77.64
2023-02-02T11:23:04.319Z,78.54
2023-02-02T11:25:35.834Z,78.43
2023-02-02T11:28:18.786Z,78.73
2023-02-02T11:30:49.364Z,77.24
2023-02-02T11:33:29.022Z,77.59
2023-02-02T11:35:58.980Z,76.74
2023-02-02T11:38:28.074Z,77.30
2023-02-02T11:41:02.301Z,76.70
2023-02-02T11:43:32.269Z,75.76
2023-02-02T11:46:03.599Z,76.08
2023-02-02T11:48:35.790Z,75.99
2023-02-02T11:51:05.307Z,76.90
2023-02-02T11:53:35.475Z,75.77
2023-02-02T11:56:08.735Z,75.64
2023-02-02T11:58:46.114Z,76.64
2023-02-02T12:01:26.047Z,76.11
2023-02-02T12:03:54.727Z,76.62
2023-02-02T12:06:24.707Z,74.47
2023-02-02T12:08:56.735Z,74.38
2023-02-02T12:11:44.106Z,75.27
2023-02-02T12:14:24.698Z,75.18
2023-02-02T12:17:08.048Z,76.72
2023-02-02T12:19:53.056Z,76.26
2023-02-02T12:22:37.442Z,75.70
2023-02-02T12:25:28.743Z,76.02
2023-02-02T12:28:06.244Z,75.58
2023-02-02T12:30:41.618Z,76.03
2023-02-02T12:33:24.325Z,76.10
2023-02-02T12:36:09.774Z,75.85
2023-02-02T12:38:55.529Z,75.38
2023-02-02T12:41:38.006Z,75.05
2023-02-02T12:44:17.712Z,74.30
2023-02-02T12:46:55.130Z,75.65
2023-02-02T12:49:42.185Z,75.97
2023-02-02T12:52:22.496Z,75.70
2023-02-02T12:55:05.167Z,76.41
2023-02-02T12:57:41.912Z,75.99
2023-02-02T13:00:38.450Z,75.34
2023-02-02T13:03:29.478Z,75.80
2023-02-02T13:06:13.863Z,76.87
2023-02-02T13:08:49.054Z,76.00
2023-02-02T13:11:30.798Z,76.72
2023-02-02T13:14:01.126Z,76.31
2023-02-02T13:16:32.227Z,75.92
2023-02-02T13:19:03.730Z,76.01
2023-02-02T13:21:33.494Z,76.66
2023-02-02T13:24:06.355Z,76.56
2023-02-02T13:26:39.507Z,75.02
2023-02-02T13:29:12.860Z,74.40
2023-02-02T13:31:49.456Z,74.28
2023-02-02T13:34:22.100Z,72.00
2023-02-02T13:36:55.311Z,71.03
2023-02-02T13:39:29.939Z,69.40
2023-02-02T13:41:57.757Z,71.12
2023-02-02T13:44:30.993Z,70.97
2023-02-02T13:47:06.103Z,69.97
2023-02-02T13:49:41.042Z,70.89
2023-02-02T13:52:22.975Z,68.81
2023-02-02T13:55:25.553Z,67.16
2023-02-02T13:58:35.997Z,69.38
2023-02-02T14:01:12.743Z,71.24
2023-02-02T14:03:43.629Z,71.17
2023-02-02T14:06:15.367Z,69.57
2023-02-02T14:08:49.142Z,69.31
2023-02-02T14:11:30.328Z,69.23
2023-02-02T14:14:18.578Z,69.66
2023-02-02T14:16:53.344Z,70.52
2023-02-02T14:19:50.325Z,70.59
2023-02-02T14:22:20.927Z,70.21
2023-02-02T14:24:50.585Z,69.35
2023-02-02T14:27:57.909Z,69.54
2023-02-02T14:30:29.828Z,68.73
2023-02-02T14:33:26.121Z,70.50
2023-02-02T14:36:02.137Z,70.17
2023-02-02T14:39:04.354Z,69.47
2023-02-02T14:42:30.501Z,70.59
2023-02-02T14:45:17.162Z,69.18
2023-02-02T14:47:51.247Z,70.90
2023-02-02T14:50:24.765Z,70.01
2023-02-02T14:53:02.864Z,70.16
2023-02-02T14:55:31.764Z,69.24
2023-02-02T14:58:02.074Z,69.18
2023-02-02T15:00:33.019Z,70.79
2023-02-02T15:03:38.211Z,70.55
2023-02-02T15:06:14.507Z,70.62
2023-02-02T15:08:44.724Z,71.73
2023-02-02T15:11:32.101Z,71.14
2023-02-02T15:14:19.209Z,71.04
2023-02-02T15:16:47.496Z,70.56
2023-02-02T15:19:24.745Z,69.69
2023-02-02T15:21:56.340Z,69.89
2023-02-02T15:24:28.798Z,71.19
2023-02-02T15:26:59.999Z,70.78
2023-02-02T15:29:43.065Z,72.38
2023-02-02T15:32:16.424Z,71.51
2023-02-02T15:34:47.894Z,72.54
2023-02-02T15:37:21.415Z,72.58
2023-02-02T15:39:53.312Z,72.78
2023-02-02T15:42:41.833Z,73.71
2023-02-02T15:45:33.218Z,72.63
2023-02-02T15:48:04.075Z,71.33
2023-02-02T15:50:31.893Z,71.88
2023-02-02T15:53:00.035Z,71.66
2023-02-02T15:55:33.556Z,71.92
2023-02-02T15:58:01.657Z,73.91
2023-02-02T16:00:31.962Z,72.96
2023-02-02T16:03:05.592Z,73.35
2023-02-02T16:05:47.591Z,73.38
2023-02-02T16:08:19.743Z,76.95
2023-02-02T16:10:50.097Z,76.65
2023-02-02T16:13:27.304Z,77.26
2023-02-02T16:16:00.421Z,79.38
2023-02-02T16:18:28.557Z,82.37
2023-02-02T16:20:59.078Z,81.87
2023-02-02T16:23:31.255Z,81.10
2023-02-02T16:26:03.709Z,81.63
2023-02-02T16:28:33.204Z,81.93
2023-02-02T16:31:02.554Z,80.91
2023-02-02T16:33:35.578Z,79.67
2023-02-02T16:36:06.095Z,78.01
2023-02-02T16:38:39.576Z,78.14
2023-02-02T16:41:10.640Z,78.94
2023-02-02T16:43:39.905Z,80.52
2023-02-02T16:46:10.835Z,80.14
2023-02-02T16:48:41.952Z,80.45
2023-02-02T16:51:26.994Z,78.53
2023-02-02T16:54:01.769Z,78.68
2023-02-02T16:56:35.747Z,78.23
2023-02-02T16:59:06.557Z,82.04
2023-02-02T17:01:38.789Z,82.21
2023-02-02T17:04:17.008Z,81.72
2023-02-02T17:06:52.403Z,82.74
2023-02-02T17:09:37.321Z,84.47
2023-02-02T17:12:33.191Z,82.17
2023-02-02T17:15:05.698Z,83.36
2023-02-02T17:17:33.469Z,83.83
2023-02-02T17:20:01.273Z,82.69
2023-02-02T17:22:29.097Z,80.88
2023-02-02T17:24:56.836Z,84.09
2023-02-02T17:27:28.515Z,83.24
2023-02-02T17:29:57.296Z,84.05
2023-02-02T17:32:25.527Z,83.18
2023-02-02T17:34:53.303Z,82.96
2023-02-02T17:37:21.060Z,83.66
2023-02-02T17:39:50.710Z,83.72
2023-02-02T17:42:25.701Z,84.53
2023-02-02T17:44:55.009Z,83.31
2023-02-02T17:47:22.808Z,84.82
2023-02-02T17:49:50.622Z,85.51
2023-02-02T17:52:18.492Z,86.15
2023-02-02T17:54:46.271Z,86.62
2023-02-02T17:57:15.499Z,86.38
2023-02-02T17:59:43.250Z,87.25
2023-02-02T18:02:16.153Z,85.93
2023-02-02T18:04:45.603Z,88.13
2023-02-02T18:07:13.610Z,85.97
2023-02-02T18:09:41.582Z,86.84
2023-02-02T18:12:09.585Z,87.04
2023-02-02T18:14:38.138Z,87.23
2023-02-02T18:17:08.234Z,86.99
2023-02-02T18:19:39.238Z,85.67
2023-02-02T18:22:07.475Z,86.06
2023-02-02T18:24:35.172Z,86.03
2023-02-02T18:27:02.875Z,85.78
2023-02-02T18:29:30.663Z,85.11
2023-02-02T18:31:59.324Z,85.10
2023-02-02T18:34:30.357Z,84.74
2023-02-02T18:36:59.636Z,84.16
2023-02-02T18:39:27.497Z,83.17
2023-02-02T18:41:55.223Z,84.57
2023-02-02T18:44:23.951Z,84.55
2023-02-02T18:46:52.252Z,83.32
2023-02-02T18:49:20.534Z,82.77
2023-02-02T18:51:48.925Z,85.01
2023-02-02T18:54:17.992Z,86.46
2023-02-02T18:56:45.688Z,86.64
2023-02-02T18:59:13.432Z,85.38
2023-02-02T19:01:41.226Z,85.21
2023-02-02T19:04:09.643Z,84.71
2023-02-02T19:06:55.335Z,84.96
2023-02-02T19:09:24.781Z,85.81
2023-02-02T19:11:54.787Z,85.78
2023-02-02T19:14:26.525Z,86.08
2023-02-02T19:16:57.014Z,89.07
2023-02-02T19:19:26.384Z,88.75
2023-02-02T19:21:56.465Z,89.37
2023-02-02T19:24:26.590Z,89.54
2023-02-02T19:26:54.987Z,89.08
2023-02-02T19:29:24.927Z,88.97
2023-02-02T19:31:54.427Z,90.37
2023-02-02T19:34:23.891Z,92.25
2023-02-02T19:36:52.281Z,91.10
2023-02-02T19:39:22.271Z,91.63
2023-02-02T19:41:52.713Z,92.83
2023-02-02T19:44:22.356Z,95.19
2023-02-02T19:46:51.818Z,92.16
2023-02-02T19:49:25.902Z,92.91
2023-02-02T19:51:55.717Z,92.33
2023-02-02T19:54:29.141Z,93.56
2023-02-02T19:57:00.010Z,93.26
2023-02-02T19:59:33.650Z,93.19
2023-02-02T20:02:17.832Z,94.05
2023-02-02T20:04:45.537Z,95.66
2023-02-02T20:07:15.690Z,95.15
2023-02-02T20:09:43.885Z,94.43
2023-02-02T20:12:25.168Z,97.33
2023-02-02T20:14:53.122Z,96.44
2023-02-02T20:17:26.590Z,97.06
2023-02-02T20:19:54.274Z,96.74
2023-02-02T20:22:25.410Z,94.74
2023-02-02T20:24:54.685Z,96.08
2023-02-02T20:27:26.520Z,94.97
2023-02-02T20:29:56.408Z,95.21
2023-02-02T20:32:26.577Z,96.14
2023-02-02T20:34:56.417Z,94.86
2023-02-02T20:37:29.066Z,95.95
2023-02-02T20:39:58.742Z,97.99
2023-02-02T20:42:28.413Z,97.53
2023-02-02T20:44:57.820Z,97.39
2023-02-02T20:47:25.655Z,96.88
2023-02-02T20:49:53.355Z,96.24
2023-02-02T20:52:23.761Z,95.62
2023-02-02T20:54:52.560Z,94.98
2023-02-02T20:57:20.555Z,95.41
2023-02-02T20:59:57.235Z,95.09
2023-02-02T21:02:26.671Z,95.87
2023-02-02T21:04:54.787Z,96.03
2023-02-02T21:07:23.601Z,98.24
2023-02-02T21:09:52.320Z,98.38
2023-02-02T21:12:22.245Z,97.83
2023-02-02T21:14:51.393Z,98.58
2023-02-02T21:17:19.175Z,98.53
2023-02-02T21:19:46.881Z,98.60
2023-02-02T21:22:14.699Z,99.32
2023-02-02T21:24:42.752Z,100.00
2023-02-02T21:27:10.766Z,99.93
2023-02-02T21:29:38.620Z,100.00
2023-02-02T21:32:07.857Z,99.21
2023-02-02T21:34:36.995Z,100.00
2023-02-02T21:37:04.736Z,100.00
2023-02-02T21:39:35.166Z,100.00
2023-02-02T21:42:13.780Z,100.00
2023-02-02T21:44:44.656Z,100.00
2023-02-02T21:47:28.457Z,100.00
2023-02-02T21:49:56.812Z,100.00
2023-02-02T21:52:26.602Z,100.00
2023-02-02T21:54:54.322Z,100.00
2023-02-02T21:57:25.577Z,100.00
2023-02-02T21:59:58.313Z,100.00
2023-02-02T22:02:39.311Z,100.00
2023-02-02T22:05:17.615Z,100.00
2023-02-02T22:07:48.048Z,100.00
2023-02-02T22:10:37.249Z,100.00
2023-02-02T22:13:16.912Z,100.00
2023-02-02T22:15:47.403Z,100.00
2023-02-02T22:18:18.758Z,100.00
2023-02-02T22:20:49.651Z,100.00
2023-02-02T22:23:19.158Z,100.00
2023-02-02T22:25:48.791Z,100.00
2023-02-02T22:28:22.369Z,100.00
2023-02-02T22:30:51.809Z,100.00
2023-02-02T22:33:21.610Z,100.00
2023-02-02T22:35:49.778Z,100.00
2023-02-02T22:38:19.060Z,100.00
2023-02-02T22:40:47.179Z,100.00
2023-02-02T22:43:16.240Z,100.00
2023-02-02T22:45:44.175Z,100.00
2023-02-02T22:48:12.922Z,100.00
2023-02-02T22:50:42.132Z,100.00
2023-02-02T22:53:09.888Z,100.00
2023-02-02T22:55:37.632Z,100.00
2023-02-02T22:58:05.357Z,100.00
2023-02-02T23:00:33.642Z,100.00
2023-02-02T23:03:01.450Z,100.00
2023-02-02T23:05:29.782Z,100.00
2023-02-02T23:07:58.872Z,100.00
2023-02-02T23:10:29.570Z,100.00
2023-02-02T23:12:58.998Z,100.00
2023-02-02T23:15:26.977Z,100.00
2023-02-02T23:17:55.326Z,100.00
2023-02-02T23:20:23.561Z,100.00
2023-02-02T23:22:51.508Z,100.00
2023-02-02T23:25:22.078Z,100.00
2023-02-02T23:27:50.265Z,100.00
2023-02-02T23:30:21.126Z,100.00
2023-02-02T23:32:49.413Z,100.00
2023-02-02T23:35:17.461Z,100.00
2023-02-02T23:37:45.151Z,100.00
2023-02-02T23:40:13.952Z,100.00
2023-02-02T23:42:43.077Z,100.00
2023-02-02T23:45:11.326Z,100.00
2023-02-02T23:47:39.637Z,100.00
2023-02-02T23:50:09.508Z,100.00
2023-02-02T23:52:38.315Z,100.00
2023-02-02T23:55:07.016Z,100.00
2023-02-02T23:57:36.544Z,100.00
